createdAt,value
2019-01-20T00:00:56.239Z,11.28
2019-01-20T00:03:24.937Z,11.95
2019-01-20T00:05:53.597Z,12.50
2019-01-20T00:08:22.307Z,12.18
2019-01-20T00:10:50.933Z,15.15
2019-01-20T00:13:19.652Z,11.97
2019-01-20T00:15:48.349Z,11.73
2019-01-20T00:18:17.009Z,13.13
2019-01-20T00:21:04.932Z,14.43
2019-01-20T00:23:33.654Z,15.38
2019-01-20T00:26:02.309Z,12.07
2019-01-20T00:28:31.006Z,13.22
2019-01-20T00:30:59.701Z,13.30
2019-01-20T00:33:28.338Z,13.95
2019-01-20T00:35:57.073Z,12.43
2019-01-20T00:38:25.866Z,14.53
2019-01-20T00:40:54.497Z,14.80
2019-01-20T00:43:23.118Z,12.37
2019-01-20T00:45:51.798Z,10.65
2019-01-20T00:48:20.565Z,9.15
2019-01-20T00:50:49.285Z,10.60
2019-01-20T00:53:17.898Z,10.60
2019-01-20T00:55:46.633Z,12.35
2019-01-20T00:58:15.337Z,12.85
2019-01-20T01:00:44.112Z,11.33
2019-01-20T01:03:12.825Z,10.65
2019-01-20T01:05:41.569Z,13.72
2019-01-20T01:08:10.350Z,12.35
2019-01-20T01:10:39.243Z,11.90
2019-01-20T01:13:08.031Z,12.50
2019-01-20T01:15:36.757Z,10.90
2019-01-20T01:18:05.462Z,11.00
2019-01-20T01:20:34.085Z,14.68
2019-01-20T01:23:02.855Z,11.73
2019-01-20T01:25:31.485Z,13.90
2019-01-20T01:28:00.152Z,11.45
2019-01-20T01:30:28.862Z,16.93
2019-01-20T01:32:57.501Z,12.85
2019-01-20T01:35:26.198Z,13.20
2019-01-20T01:37:54.892Z,11.83
2019-01-20T01:40:23.599Z,13.95
2019-01-20T01:42:52.243Z,9.30
2019-01-20T01:45:21.409Z,15.70
2019-01-20T01:47:50.138Z,10.63
2019-01-20T01:50:19.244Z,12.05
2019-01-20T01:52:48.005Z,10.18
2019-01-20T01:55:16.872Z,10.85
2019-01-20T01:57:45.564Z,12.45
2019-01-20T02:03:49.416Z,8.68
2019-01-20T02:06:18.140Z,11.50
2019-01-20T02:08:46.816Z,11.93
2019-01-20T02:11:15.420Z,10.63
2019-01-20T02:13:44.097Z,8.98
2019-01-20T02:16:12.780Z,9.30
2019-01-20T02:18:41.446Z,10.13
2019-01-20T02:21:10.193Z,9.43
2019-01-20T02:23:38.964Z,10.48
2019-01-20T02:26:07.682Z,11.45
2019-01-20T02:28:36.335Z,10.40
2019-01-20T02:31:05.047Z,11.05
2019-01-20T02:33:33.668Z,10.68
2019-01-20T02:36:02.282Z,10.88
2019-01-20T02:38:30.916Z,11.48
2019-01-20T02:40:59.551Z,11.25
2019-01-20T02:43:47.400Z,11.97
2019-01-20T02:46:16.159Z,12.33
2019-01-20T02:48:44.937Z,10.48
2019-01-20T02:51:13.493Z,10.75
2019-01-20T02:53:42.167Z,10.05
2019-01-20T02:56:10.862Z,13.08
2019-01-20T02:58:58.703Z,11.53
2019-01-20T03:01:27.334Z,14.07
2019-01-20T03:03:56.005Z,10.90
2019-01-20T03:06:24.693Z,10.68
2019-01-20T03:08:53.334Z,10.78
2019-01-20T03:11:21.966Z,12.28
2019-01-20T03:13:50.689Z,11.03
2019-01-20T03:16:19.392Z,8.65
2019-01-20T03:21:37.446Z,8.60
2019-01-20T03:24:06.270Z,10.80
2019-01-20T03:26:34.933Z,12.95
2019-01-20T03:29:03.536Z,10.85
2019-01-20T03:31:32.292Z,13.00
2019-01-20T03:34:00.976Z,12.68
2019-01-20T03:36:29.659Z,13.30
2019-01-20T03:38:58.356Z,10.50
2019-01-20T03:42:11.906Z,10.88
2019-01-20T03:44:35.165Z,12.90
2019-01-20T03:47:03.867Z,13.62
2019-01-20T03:49:32.561Z,11.93
2019-01-20T03:52:01.190Z,10.00
2019-01-20T03:54:29.799Z,12.37
2019-01-20T03:56:58.434Z,9.83
2019-01-20T03:59:27.177Z,10.65
2019-01-20T04:01:55.866Z,10.35
2019-01-20T04:04:24.500Z,10.40
2019-01-20T04:06:53.162Z,14.07
2019-01-20T04:09:21.845Z,13.05
2019-01-20T04:11:50.476Z,12.18
2019-01-20T04:14:19.135Z,13.58
2019-01-20T04:16:47.774Z,12.33
2019-01-20T04:19:16.393Z,9.88
2019-01-20T04:21:45.111Z,9.73
2019-01-20T04:24:13.725Z,11.65
2019-01-20T04:26:42.414Z,8.40
2019-01-20T04:29:11.001Z,9.45
2019-01-20T04:31:39.648Z,14.10
2019-01-20T04:34:08.273Z,10.23
2019-01-20T04:36:36.990Z,11.45
2019-01-20T04:39:07.389Z,9.35
2019-01-20T04:41:36.241Z,10.50
2019-01-20T04:47:19.021Z,9.70
2019-01-20T04:49:47.633Z,12.73
2019-01-20T04:52:16.279Z,9.28
2019-01-20T04:54:45.004Z,13.48
2019-01-20T04:59:49.232Z,10.68
2019-01-20T05:02:17.863Z,8.35
2019-01-20T05:04:47.210Z,10.90
2019-01-20T05:07:16.926Z,11.60
2019-01-20T05:09:45.534Z,10.88
2019-01-20T05:12:14.177Z,10.65
2019-01-20T05:14:42.781Z,10.72
2019-01-20T05:17:11.456Z,10.78
2019-01-20T05:19:40.168Z,9.40
2019-01-20T05:22:08.801Z,11.63
2019-01-20T05:24:37.484Z,12.20
2019-01-20T05:27:06.102Z,15.50
2019-01-20T05:29:34.765Z,10.08
2019-01-20T05:32:03.451Z,10.53
2019-01-20T05:34:32.106Z,11.22
2019-01-20T05:37:00.735Z,14.07
2019-01-20T05:39:29.357Z,8.28
2019-01-20T05:41:57.972Z,11.25
2019-01-20T05:44:26.599Z,8.85
2019-01-20T05:46:55.240Z,13.25
2019-01-20T05:49:23.869Z,9.73
2019-01-20T05:51:52.481Z,12.05
2019-01-20T05:54:21.110Z,11.70
2019-01-20T05:56:49.722Z,10.88
2019-01-20T05:59:18.382Z,12.70
2019-01-20T06:01:46.992Z,11.18
2019-01-20T06:04:15.685Z,10.98
2019-01-20T06:06:44.300Z,10.75
2019-01-20T06:09:12.998Z,13.90
2019-01-20T06:11:41.720Z,10.55
2019-01-20T06:14:10.373Z,7.55
2019-01-20T06:16:39.059Z,9.33
2019-01-20T06:19:07.677Z,10.63
2019-01-20T06:21:36.303Z,10.23
2019-01-20T06:24:05.045Z,9.00
2019-01-20T06:26:33.657Z,9.03
2019-01-20T06:29:02.282Z,11.25
2019-01-20T06:31:30.917Z,14.13
2019-01-20T06:33:59.593Z,12.37
2019-01-20T06:36:28.230Z,10.60
2019-01-20T06:38:56.890Z,14.65
2019-01-20T06:41:25.513Z,10.43
2019-01-20T06:43:54.155Z,12.50
2019-01-20T06:46:22.777Z,9.85
2019-01-20T06:48:51.397Z,9.55
2019-01-20T06:51:40.662Z,12.63
2019-01-20T06:54:09.287Z,10.58
2019-01-20T06:56:37.929Z,12.70
2019-01-20T06:59:06.578Z,11.73
2019-01-20T07:01:35.197Z,10.80
2019-01-20T07:04:23.079Z,10.63
2019-01-20T07:06:51.785Z,11.75
2019-01-20T07:09:20.484Z,11.78
2019-01-20T07:11:49.101Z,13.18
2019-01-20T07:14:17.783Z,13.28
2019-01-20T07:16:46.409Z,12.98
2019-01-20T07:19:15.168Z,10.50
2019-01-20T07:21:43.793Z,15.65
2019-01-20T07:24:12.429Z,12.65
2019-01-20T07:26:41.050Z,12.37
2019-01-20T07:29:09.681Z,11.20
2019-01-20T07:31:38.359Z,11.80
2019-01-20T07:34:06.962Z,11.30
2019-01-20T07:36:35.606Z,14.15
2019-01-20T07:42:05.871Z,14.98
2019-01-20T07:44:34.534Z,11.68
2019-01-20T07:47:03.210Z,13.03
2019-01-20T07:49:31.851Z,12.30
2019-01-20T07:52:00.543Z,10.90
2019-01-20T07:54:29.183Z,13.25
2019-01-20T07:56:57.820Z,10.70
2019-01-20T07:59:26.457Z,11.05
2019-01-20T08:01:55.113Z,12.78
2019-01-20T08:04:23.764Z,10.50
2019-01-20T08:06:52.403Z,18.02
2019-01-20T08:09:21.093Z,14.13
2019-01-20T08:11:49.824Z,13.70
2019-01-20T08:14:18.425Z,14.38
2019-01-20T08:16:47.064Z,15.03
2019-01-20T08:19:15.871Z,12.15
2019-01-20T08:21:44.663Z,12.82
2019-01-20T08:24:13.294Z,15.98
2019-01-20T08:26:41.949Z,13.25
2019-01-20T08:29:12.415Z,12.85
2019-01-20T08:31:41.039Z,14.83
2019-01-20T08:34:09.648Z,13.90
2019-01-20T08:36:38.311Z,11.70
2019-01-20T08:39:47.222Z,15.25
2019-01-20T08:42:15.964Z,14.43
2019-01-20T08:44:45.585Z,15.03
2019-01-20T08:47:38.714Z,13.90
2019-01-20T08:50:26.559Z,16.23
2019-01-20T08:52:55.208Z,15.48
2019-01-20T08:55:23.996Z,14.23
2019-01-20T08:57:52.648Z,16.40
2019-01-20T09:00:21.339Z,17.87
2019-01-20T09:02:49.977Z,15.93
2019-01-20T09:05:18.657Z,14.95
2019-01-20T09:07:47.456Z,18.98
2019-01-20T09:10:35.435Z,14.73
2019-01-20T09:15:43.384Z,17.23
2019-01-20T09:18:12.071Z,27.30
2019-01-20T09:20:40.708Z,32.33
2019-01-20T09:23:09.350Z,20.80
2019-01-20T09:25:38.052Z,17.23
2019-01-20T09:28:06.892Z,24.18
2019-01-20T09:30:35.702Z,18.85
2019-01-20T09:33:04.781Z,23.12
2019-01-20T09:35:33.423Z,17.20
2019-01-20T09:38:02.078Z,20.30
2019-01-20T09:40:30.809Z,20.40
2019-01-20T09:42:59.523Z,16.95
2019-01-20T09:45:30.161Z,22.85
2019-01-20T09:47:59.091Z,18.98
2019-01-20T09:50:27.859Z,22.55
2019-01-20T09:52:56.643Z,18.45
2019-01-20T09:55:25.398Z,19.90
2019-01-20T09:57:54.071Z,17.92
2019-01-20T10:00:24.513Z,21.52
2019-01-20T10:02:53.315Z,33.13
2019-01-20T10:05:22.057Z,25.70
2019-01-20T10:08:11.543Z,31.33
2019-01-20T10:10:40.220Z,30.02
2019-01-20T10:13:08.896Z,22.20
2019-01-20T10:15:37.733Z,17.92
2019-01-20T10:18:06.471Z,22.02
2019-01-20T10:20:35.275Z,19.75
2019-01-20T10:23:04.108Z,17.57
2019-01-20T10:25:32.747Z,27.70
2019-01-20T10:28:01.476Z,21.37
2019-01-20T10:30:49.366Z,15.43
2019-01-20T10:33:18.023Z,18.30
2019-01-20T10:36:05.712Z,20.05
2019-01-20T10:38:37.203Z,26.55
2019-01-20T10:41:05.198Z,27.98
2019-01-20T10:43:33.914Z,18.55
2019-01-20T10:46:02.536Z,47.65
2019-01-20T10:48:31.194Z,50.10
2019-01-20T10:50:59.988Z,27.42
2019-01-20T10:53:28.689Z,26.33
2019-01-20T10:55:57.398Z,19.15
2019-01-20T10:58:26.249Z,21.35
2019-01-20T11:00:54.897Z,28.90
2019-01-20T11:03:23.754Z,19.70
2019-01-20T11:05:52.488Z,24.47
2019-01-20T11:08:23.576Z,19.82
2019-01-20T11:10:52.269Z,21.15
2019-01-20T11:13:20.905Z,21.15
2019-01-20T11:15:49.569Z,25.70
2019-01-20T11:18:18.395Z,26.62
2019-01-20T11:20:47.187Z,24.40
2019-01-20T11:23:16.048Z,22.05
2019-01-20T11:25:44.791Z,23.47
2019-01-20T11:28:13.618Z,20.88
2019-01-20T11:30:42.597Z,20.35
2019-01-20T11:33:11.251Z,58.20
2019-01-20T11:35:39.941Z,53.70
2019-01-20T11:38:08.648Z,29.82
2019-01-20T11:40:37.340Z,30.68
2019-01-20T11:43:06.041Z,23.12
2019-01-20T11:45:34.867Z,23.32
2019-01-20T11:48:22.754Z,27.73
2019-01-20T11:50:51.537Z,29.37
2019-01-20T11:53:20.194Z,23.27
2019-01-20T11:55:48.883Z,26.55
2019-01-20T11:58:17.681Z,20.62
2019-01-20T12:00:46.385Z,27.25
2019-01-20T12:03:15.199Z,24.32
2019-01-20T12:05:45.721Z,22.50
2019-01-20T12:08:14.712Z,24.98
2019-01-20T12:10:43.518Z,27.58
2019-01-20T12:13:31.402Z,19.37
2019-01-20T12:16:00.096Z,21.42
2019-01-20T12:18:28.808Z,21.30
2019-01-20T12:20:57.541Z,25.08
2019-01-20T12:23:26.291Z,28.83
2019-01-20T12:25:55.077Z,27.10
2019-01-20T12:28:23.887Z,19.92
2019-01-20T12:30:52.667Z,19.48
2019-01-20T12:33:21.269Z,21.20
2019-01-20T12:35:50.017Z,20.43
2019-01-20T12:38:18.777Z,20.97
2019-01-20T12:40:48.213Z,22.95
2019-01-20T12:43:16.925Z,21.65
2019-01-20T12:45:45.577Z,23.32
2019-01-20T12:48:14.330Z,19.80
2019-01-20T12:50:43.105Z,21.05
2019-01-20T12:53:11.945Z,19.82
2019-01-20T12:55:40.589Z,24.30
2019-01-20T12:58:49.004Z,21.52
2019-01-20T13:01:17.668Z,21.87
2019-01-20T13:03:46.312Z,19.50
2019-01-20T13:06:14.977Z,19.37
2019-01-20T13:08:43.656Z,23.98
2019-01-20T13:11:12.448Z,22.15
2019-01-20T13:13:41.187Z,32.70
2019-01-20T13:16:09.836Z,22.00
2019-01-20T13:18:38.578Z,23.42
2019-01-20T13:21:08.117Z,23.90
2019-01-20T13:23:37.745Z,28.85
2019-01-20T13:26:06.472Z,20.20
2019-01-20T13:28:35.135Z,27.65
2019-01-20T13:31:03.840Z,21.48
2019-01-20T13:33:32.504Z,21.42
2019-01-20T13:36:07.118Z,25.55
2019-01-20T13:38:31.603Z,19.02
2019-01-20T13:41:21.027Z,25.43
2019-01-20T13:43:49.694Z,23.40
2019-01-20T13:46:18.334Z,20.12
2019-01-20T13:48:46.984Z,21.40
2019-01-20T13:51:15.640Z,20.20
2019-01-20T13:54:24.071Z,21.50
2019-01-20T13:56:52.701Z,21.30
2019-01-20T13:59:21.383Z,20.70
2019-01-20T14:01:50.205Z,23.02
2019-01-20T14:04:18.848Z,23.42
2019-01-20T14:06:47.563Z,21.15
2019-01-20T14:09:16.281Z,20.90
2019-01-20T14:11:44.930Z,24.50
2019-01-20T14:14:13.621Z,25.12
2019-01-20T14:16:42.246Z,20.08
2019-01-20T14:19:10.959Z,22.70
2019-01-20T14:21:39.660Z,22.70
2019-01-20T14:24:08.351Z,25.65
2019-01-20T14:26:57.765Z,27.55
2019-01-20T14:29:26.402Z,27.85
2019-01-20T14:31:55.052Z,32.30
2019-01-20T14:34:23.757Z,36.75
2019-01-20T14:36:52.424Z,43.30
2019-01-20T14:39:21.102Z,27.35
2019-01-20T14:41:49.816Z,22.55
2019-01-20T14:44:18.457Z,18.65
2019-01-20T14:46:47.099Z,25.20
2019-01-20T14:49:15.781Z,25.02
2019-01-20T14:51:44.490Z,19.48
2019-01-20T14:54:13.210Z,20.90
2019-01-20T14:56:41.857Z,19.12
2019-01-20T14:59:10.492Z,18.62
2019-01-20T15:01:39.225Z,22.40
2019-01-20T15:04:07.890Z,22.55
2019-01-20T15:06:36.524Z,25.57
2019-01-20T15:09:46.634Z,28.05
2019-01-20T15:12:15.270Z,26.35
2019-01-20T15:14:43.995Z,23.47
2019-01-20T15:17:12.662Z,22.87
2019-01-20T15:19:41.277Z,22.65
2019-01-20T15:22:10.442Z,19.05
2019-01-20T15:24:40.317Z,18.67
2019-01-20T15:27:08.952Z,19.62
2019-01-20T15:29:37.716Z,19.50
2019-01-20T15:32:06.393Z,24.43
2019-01-20T15:34:35.045Z,20.52
2019-01-20T15:37:03.791Z,30.52
2019-01-20T15:42:27.683Z,44.45
2019-01-20T15:44:56.349Z,41.98
2019-01-20T15:47:25.177Z,42.75
2019-01-20T15:49:55.766Z,41.35
2019-01-20T15:52:24.378Z,67.45
2019-01-20T15:54:53.118Z,39.90
2019-01-20T15:57:21.835Z,27.20
2019-01-20T15:59:50.500Z,26.85
2019-01-20T16:02:19.120Z,26.30
2019-01-20T16:04:47.858Z,31.37
2019-01-20T16:10:30.340Z,31.35
2019-01-20T16:12:58.976Z,41.05
2019-01-20T16:15:37.603Z,28.80
2019-01-20T16:18:06.729Z,28.45
2019-01-20T16:20:35.439Z,21.02
2019-01-20T16:23:25.486Z,25.68
2019-01-20T16:28:30.553Z,24.15
2019-01-20T16:30:59.273Z,24.82
2019-01-20T16:33:28.670Z,28.00
2019-01-20T16:36:24.232Z,29.85
2019-01-20T16:41:50.018Z,30.25
2019-01-20T16:44:20.415Z,28.98
2019-01-20T16:46:49.949Z,29.27
2019-01-20T16:49:19.097Z,27.35
2019-01-20T16:51:48.524Z,46.58
2019-01-20T16:54:17.634Z,57.10
2019-01-20T16:56:47.327Z,112.42
2019-01-20T16:59:16.237Z,129.42
2019-01-20T17:01:45.194Z,113.15
2019-01-20T17:04:14.435Z,55.25
2019-01-20T17:06:43.686Z,46.35
2019-01-20T17:17:49.839Z,26.35
2019-01-20T17:20:18.892Z,35.58
2019-01-20T17:23:27.417Z,34.63
2019-01-20T17:26:15.487Z,29.35
2019-01-20T17:28:44.424Z,34.38
2019-01-20T17:31:14.701Z,51.42
2019-01-20T17:33:45.311Z,33.53
2019-01-20T17:36:15.478Z,31.00
2019-01-20T17:38:44.349Z,43.90
2019-01-20T17:41:13.231Z,33.38
2019-01-20T17:43:42.081Z,30.80
2019-01-20T17:46:10.962Z,31.48
2019-01-20T17:48:40.134Z,42.33
2019-01-20T17:51:09.193Z,40.28
2019-01-20T17:53:37.967Z,35.23
2019-01-20T17:56:06.842Z,37.63
2019-01-20T17:58:35.721Z,38.60
2019-01-20T18:01:04.964Z,37.73
2019-01-20T18:03:33.917Z,36.95
2019-01-20T18:06:03.114Z,29.55
2019-01-20T18:08:52.944Z,32.30
2019-01-20T18:14:34.451Z,27.27
2019-01-20T18:17:05.636Z,25.62
2019-01-20T18:19:34.766Z,24.95
2019-01-20T18:22:25.199Z,25.30
2019-01-20T18:24:54.268Z,24.65
2019-01-20T18:27:42.299Z,24.18
2019-01-20T18:33:14.372Z,23.77
2019-01-20T18:35:43.308Z,24.07
2019-01-20T18:38:12.332Z,26.42
2019-01-20T18:40:41.308Z,25.92
2019-01-20T18:43:49.837Z,25.00
2019-01-20T18:46:18.721Z,26.10
2019-01-20T18:48:47.724Z,24.40
2019-01-20T18:51:17.232Z,22.25
2019-01-20T18:53:46.530Z,22.40
2019-01-20T18:56:19.775Z,24.27
2019-01-20T19:04:25.213Z,25.48
2019-01-20T19:06:54.162Z,20.60
2019-01-20T19:09:26.629Z,25.00
2019-01-20T19:11:55.543Z,25.00
2019-01-20T19:21:07.009Z,22.30
2019-01-20T19:26:52.954Z,20.82
2019-01-20T19:29:41.075Z,24.35
2019-01-20T19:32:13.573Z,22.32
2019-01-20T19:34:42.733Z,23.62
2019-01-20T19:40:32.530Z,25.52
2019-01-20T19:43:01.528Z,21.33
2019-01-20T19:57:13.978Z,24.67
2019-01-20T19:59:43.822Z,22.10
2019-01-20T20:02:13.719Z,29.80
2019-01-20T20:04:42.893Z,27.35
2019-01-20T20:07:17.847Z,26.48
2019-01-20T20:12:42.783Z,28.07
2019-01-20T20:18:15.336Z,23.80
2019-01-20T20:20:44.110Z,22.80
2019-01-20T20:23:12.947Z,23.32
2019-01-20T20:25:43.159Z,24.18
2019-01-20T20:28:14.400Z,24.00
2019-01-20T20:30:43.649Z,28.20
2019-01-20T20:36:19.706Z,29.27
2019-01-20T20:39:13.708Z,28.95
2019-01-20T20:42:02.069Z,25.17
2019-01-20T20:44:49.917Z,23.20
2019-01-20T20:47:18.854Z,24.82
2019-01-20T20:50:12.994Z,24.82
2019-01-20T20:53:11.705Z,22.05
2019-01-20T20:55:16.855Z,25.05
2019-01-20T21:00:54.357Z,24.80
2019-01-20T21:03:46.395Z,30.80
2019-01-20T21:06:17.242Z,29.75
2019-01-20T21:08:49.574Z,26.48
2019-01-20T21:20:39.842Z,30.15
2019-01-20T21:23:12.316Z,26.40
2019-01-20T21:25:39.887Z,35.05
2019-01-20T21:29:04.360Z,24.23
2019-01-20T21:36:42.343Z,30.05
2019-01-20T21:39:12.235Z,27.07
2019-01-20T21:41:41.280Z,29.23
2019-01-20T21:44:31.616Z,28.87
2019-01-20T21:47:02.969Z,26.97
2019-01-20T21:49:51.776Z,30.92
2019-01-20T21:52:45.072Z,27.62
2019-01-20T21:55:14.230Z,28.20
2019-01-20T21:58:15.952Z,20.80
2019-01-20T22:03:27.372Z,26.80
2019-01-20T22:08:47.412Z,25.15
2019-01-20T22:11:35.235Z,26.70
2019-01-20T22:16:40.306Z,27.50
2019-01-20T22:19:28.460Z,29.05
2019-01-20T22:22:16.308Z,24.30
2019-01-20T22:25:27.128Z,22.77
2019-01-20T22:27:56.595Z,24.07
2019-01-20T22:30:27.331Z,23.65
2019-01-20T22:33:15.139Z,23.52
2019-01-20T22:35:44.312Z,21.82
2019-01-20T22:38:13.121Z,28.00
2019-01-20T22:40:42.595Z,27.27
2019-01-20T22:43:11.327Z,24.43
2019-01-20T22:48:31.439Z,25.88
2019-01-20T22:51:00.423Z,29.00
2019-01-20T22:56:36.871Z,25.43
2019-01-20T22:59:05.744Z,27.62
2019-01-20T23:01:57.888Z,29.80
2019-01-20T23:07:21.864Z,25.97
2019-01-20T23:09:51.672Z,25.17
2019-01-20T23:12:20.534Z,22.90
2019-01-20T23:20:57.727Z,28.47
2019-01-20T23:23:28.869Z,26.97
2019-01-20T23:25:57.717Z,24.65
2019-01-20T23:28:27.564Z,23.70
2019-01-20T23:30:59.483Z,20.85
2019-01-20T23:33:28.657Z,30.48
2019-01-20T23:36:00.266Z,26.77
2019-01-20T23:38:29.297Z,22.20
2019-01-20T23:41:37.897Z,27.48
2019-01-20T23:44:07.009Z,24.52
2019-01-20T23:46:36.239Z,26.12
2019-01-20T23:49:05.115Z,25.17
2019-01-20T23:51:33.945Z,25.62
2019-01-20T23:54:02.764Z,22.48
2019-01-20T23:56:32.883Z,25.70
